createdAt,value
2022-12-20T00:01:34.740Z,100.00
2022-12-20T00:04:03.880Z,100.00
2022-12-20T00:06:31.547Z,100.00
2022-12-20T00:08:59.530Z,100.00
2022-12-20T00:11:27.110Z,100.00
2022-12-20T00:13:54.555Z,100.00
2022-12-20T00:16:22.887Z,100.00
2022-12-20T00:18:54.055Z,100.00
2022-12-20T00:21:21.427Z,100.00
2022-12-20T00:23:48.894Z,100.00
2022-12-20T00:26:17.075Z,100.00
2022-12-20T00:28:45.495Z,100.00
2022-12-20T00:31:13.473Z,100.00
2022-12-20T00:33:41.338Z,100.00
2022-12-20T00:36:09.456Z,100.00
2022-12-20T00:38:38.075Z,100.00
2022-12-20T00:41:09.373Z,100.00
2022-12-20T00:43:37.595Z,100.00
2022-12-20T00:46:05.051Z,100.00
2022-12-20T00:48:33.272Z,100.00
2022-12-20T00:51:01.145Z,100.00
2022-12-20T00:53:28.744Z,100.00
2022-12-20T00:55:56.206Z,100.00
2022-12-20T00:58:23.568Z,100.00
2022-12-20T01:00:56.114Z,100.00
2022-12-20T01:03:24.767Z,100.00
2022-12-20T05:03:43.307Z,100.00
2022-12-20T05:06:10.962Z,100.00
2022-12-20T05:08:40.357Z,100.00
2022-12-20T05:11:08.448Z,100.00
2022-12-20T05:13:36.816Z,100.00
2022-12-20T05:16:05.366Z,100.00
2022-12-20T05:18:35.002Z,100.00
2022-12-20T05:21:25.669Z,100.00
2022-12-20T05:24:13.056Z,100.00
2022-12-20T05:26:57.487Z,100.00
2022-12-20T05:29:25.035Z,100.00
2022-12-20T05:31:52.904Z,100.00
2022-12-20T05:34:20.584Z,100.00
2022-12-20T05:36:52.552Z,100.00
2022-12-20T05:39:21.686Z,100.00
2022-12-20T05:41:51.468Z,100.00
2022-12-20T05:44:22.389Z,100.00
2022-12-20T05:46:53.127Z,100.00
2022-12-20T05:49:26.750Z,100.00
2022-12-20T05:51:55.410Z,100.00
2022-12-20T05:54:25.704Z,100.00
2022-12-20T05:57:02.718Z,100.00
2022-12-20T05:59:36.446Z,100.00
2022-12-20T06:02:06.431Z,100.00
2022-12-20T06:04:38.358Z,100.00
2022-12-20T06:07:13.674Z,100.00
2022-12-20T06:09:43.751Z,100.00
2022-12-20T06:12:16.679Z,100.00
2022-12-20T06:14:44.530Z,100.00
2022-12-20T06:17:15.112Z,100.00
2022-12-20T06:19:43.459Z,100.00
2022-12-20T06:22:13.673Z,100.00
2022-12-20T06:24:48.207Z,100.00
2022-12-20T06:27:22.186Z,100.00
2022-12-20T06:29:57.816Z,100.00
2022-12-20T06:32:30.758Z,100.00
2022-12-20T06:34:58.278Z,100.00
2022-12-20T06:37:25.724Z,100.00
2022-12-20T06:39:53.276Z,100.00
2022-12-20T06:42:21.317Z,100.00
2022-12-20T06:44:48.959Z,100.00
2022-12-20T06:47:16.497Z,100.00
2022-12-20T06:49:43.901Z,100.00
2022-12-20T06:52:19.404Z,100.00
2022-12-20T06:54:49.736Z,100.00
2022-12-20T06:57:17.208Z,100.00
2022-12-20T06:59:47.567Z,100.00
2022-12-20T07:02:15.239Z,100.00
2022-12-20T07:04:42.841Z,100.00
2022-12-20T07:07:13.609Z,100.00
2022-12-20T07:09:42.926Z,100.00
2022-12-20T07:12:12.035Z,100.00
2022-12-20T07:14:39.432Z,100.00
2022-12-20T07:17:07.944Z,82.28
2022-12-20T07:19:36.973Z,70.77
2022-12-20T07:22:04.587Z,66.55
2022-12-20T07:24:32.536Z,63.01
2022-12-20T07:26:59.991Z,61.94
2022-12-20T07:29:27.533Z,59.88
2022-12-20T07:31:56.784Z,58.25
2022-12-20T07:34:24.252Z,56.44
2022-12-20T07:36:53.545Z,54.27
2022-12-20T07:39:21.224Z,51.90
2022-12-20T07:41:50.148Z,50.65
2022-12-20T07:44:17.657Z,50.96
2022-12-20T07:46:45.205Z,51.47
2022-12-20T07:49:12.743Z,55.71
2022-12-20T07:51:41.573Z,54.54
2022-12-20T07:54:11.814Z,53.20
2022-12-20T07:56:41.625Z,51.22
2022-12-20T07:59:09.782Z,51.61
2022-12-20T08:01:37.787Z,53.61
2022-12-20T08:04:13.547Z,50.95
2022-12-20T08:06:41.434Z,52.15
2022-12-20T08:09:08.997Z,52.98
2022-12-20T08:11:36.829Z,51.56
2022-12-20T08:14:05.370Z,50.54
2022-12-20T08:16:33.722Z,52.15
2022-12-20T08:19:01.398Z,51.53
2022-12-20T08:21:30.103Z,53.31
2022-12-20T08:23:57.870Z,53.39
2022-12-20T08:26:25.372Z,53.63
2022-12-20T08:28:52.796Z,53.23
2022-12-20T08:31:22.090Z,52.55
2022-12-20T08:33:49.673Z,49.62
2022-12-20T08:36:17.078Z,50.19
2022-12-20T08:38:44.525Z,52.63
2022-12-20T08:41:13.502Z,52.53
2022-12-20T08:43:41.218Z,50.17
2022-12-20T08:46:08.878Z,50.71
2022-12-20T08:48:36.372Z,51.11
2022-12-20T08:51:04.996Z,53.42
2022-12-20T08:53:32.838Z,53.50
2022-12-20T08:56:06.131Z,56.30
2022-12-20T08:58:33.748Z,57.42
2022-12-20T09:01:06.307Z,56.94
2022-12-20T09:03:35.088Z,55.98
2022-12-20T09:06:06.877Z,56.63
2022-12-20T09:08:35.195Z,57.83
2022-12-20T09:11:07.209Z,58.86
2022-12-20T09:13:39.696Z,57.25
2022-12-20T09:16:11.171Z,57.30
2022-12-20T09:18:38.883Z,57.81
2022-12-20T09:21:06.514Z,60.34
2022-12-20T09:23:34.782Z,60.24
2022-12-20T09:26:06.076Z,61.06
2022-12-20T09:28:33.599Z,61.19
2022-12-20T09:31:01.772Z,62.02
2022-12-20T09:33:29.377Z,61.93
2022-12-20T09:35:56.930Z,62.70
2022-12-20T09:38:25.296Z,64.01
2022-12-20T09:40:56.673Z,65.54
2022-12-20T09:43:33.614Z,63.29
2022-12-20T09:46:01.850Z,63.77
2022-12-20T09:48:30.986Z,64.29
2022-12-20T09:50:58.455Z,63.82
2022-12-20T09:53:29.511Z,63.27
2022-12-20T09:55:59.518Z,65.71
2022-12-20T09:58:45.980Z,68.92
2022-12-20T10:01:23.044Z,66.45
2022-12-20T10:03:53.075Z,67.33
2022-12-20T10:06:26.469Z,68.37
2022-12-20T10:09:03.801Z,70.52
2022-12-20T10:11:52.713Z,69.52
2022-12-20T10:14:33.285Z,66.94
2022-12-20T10:17:02.597Z,65.81
2022-12-20T10:19:55.745Z,64.42
2022-12-20T10:22:31.049Z,63.76
2022-12-20T10:25:00.250Z,64.58
2022-12-20T10:27:27.931Z,64.76
2022-12-20T10:29:55.552Z,63.38
2022-12-20T10:32:23.487Z,61.99
2022-12-20T10:35:00.050Z,62.94
2022-12-20T10:37:27.633Z,64.13
2022-12-20T10:39:54.978Z,65.37
2022-12-20T10:42:22.366Z,69.79
2022-12-20T10:44:49.817Z,69.82
2022-12-20T10:47:31.482Z,69.94
2022-12-20T10:50:08.784Z,69.71
2022-12-20T14:36:19.848Z,74.67
2022-12-20T14:38:50.890Z,74.59
2022-12-20T14:41:27.497Z,74.08
2022-12-20T14:43:55.188Z,74.32
2022-12-20T14:46:26.085Z,74.02
2022-12-20T14:49:26.469Z,73.69
2022-12-20T14:52:04.309Z,74.18
2022-12-20T14:57:23.164Z,75.67
2022-12-20T15:00:01.006Z,78.98
2022-12-20T15:02:34.575Z,78.94
2022-12-20T15:05:40.865Z,79.50
2022-12-20T15:08:14.781Z,78.28
2022-12-20T15:10:50.822Z,78.51
2022-12-20T15:13:19.170Z,79.63
2022-12-20T15:15:46.984Z,79.78
2022-12-20T15:18:18.156Z,79.39
2022-12-20T15:20:46.488Z,78.05
2022-12-20T15:23:15.697Z,76.93
2022-12-20T15:25:44.021Z,76.50
2022-12-20T15:28:19.095Z,77.48
2022-12-20T15:30:47.585Z,77.44
2022-12-20T15:33:16.921Z,76.30
2022-12-20T15:35:45.067Z,75.85
2022-12-20T15:38:16.797Z,75.49
2022-12-20T15:40:45.407Z,76.44
2022-12-20T15:43:13.920Z,75.65
2022-12-20T15:45:42.440Z,74.19
2022-12-20T15:48:17.095Z,72.84
2022-12-20T15:50:45.533Z,71.92
2022-12-20T15:53:14.562Z,72.66
2022-12-20T15:55:42.500Z,72.11
2022-12-20T15:58:11.846Z,72.14
2022-12-20T16:00:40.815Z,72.60
2022-12-20T16:03:14.036Z,72.74
2022-12-20T16:05:42.015Z,70.93
2022-12-20T16:08:09.819Z,70.64
2022-12-20T16:10:38.005Z,68.52
2022-12-20T16:13:05.547Z,66.88
2022-12-20T16:15:33.230Z,66.54
2022-12-20T16:18:00.668Z,65.41
2022-12-20T16:20:29.646Z,65.88
2022-12-20T16:22:57.412Z,64.66
2022-12-20T16:25:31.695Z,65.05
2022-12-20T16:27:59.252Z,64.92
2022-12-20T16:30:27.084Z,64.35
2022-12-20T16:32:54.542Z,63.14
2022-12-20T16:35:28.424Z,64.31
2022-12-20T16:37:57.210Z,63.77
2022-12-20T16:40:25.411Z,63.62
2022-12-20T16:42:53.032Z,63.17
2022-12-20T16:45:22.686Z,62.96
2022-12-20T16:47:50.615Z,62.62
2022-12-20T16:50:19.244Z,63.07
2022-12-20T16:52:46.873Z,63.79
2022-12-20T16:55:16.110Z,64.12
2022-12-20T16:57:43.714Z,63.44
2022-12-20T17:00:15.870Z,63.90
2022-12-20T17:02:44.793Z,63.67
2022-12-20T17:05:18.361Z,63.02
2022-12-20T17:07:45.772Z,62.26
2022-12-20T17:10:13.532Z,62.37
2022-12-20T17:12:41.057Z,63.59
2022-12-20T17:15:13.200Z,64.08
2022-12-20T17:17:41.193Z,64.77
2022-12-20T17:20:08.738Z,65.17
2022-12-20T17:22:36.133Z,64.75
2022-12-20T17:25:03.871Z,63.39
2022-12-20T17:27:31.429Z,63.62
2022-12-20T17:29:59.040Z,62.98
2022-12-20T17:32:26.713Z,62.69
2022-12-20T17:34:54.605Z,62.80
2022-12-20T17:37:22.327Z,62.01
2022-12-20T17:39:50.524Z,62.60
2022-12-20T17:42:18.053Z,62.12
2022-12-20T17:44:46.471Z,62.19
2022-12-20T17:47:14.278Z,61.79
2022-12-20T17:49:41.593Z,61.54
2022-12-20T17:52:15.131Z,61.03
2022-12-20T17:54:42.622Z,60.76
2022-12-20T17:57:14.232Z,60.42
2022-12-20T17:59:42.499Z,60.46
2022-12-20T18:02:23.222Z,60.82
2022-12-20T18:04:51.178Z,61.10
2022-12-20T18:07:18.647Z,60.91
2022-12-20T18:09:46.751Z,61.73
2022-12-20T18:12:14.097Z,61.41
2022-12-20T18:14:41.491Z,61.14
2022-12-20T18:17:08.859Z,61.20
2022-12-20T18:19:36.361Z,61.04
2022-12-20T18:22:04.950Z,60.97
2022-12-20T18:24:32.536Z,60.84
2022-12-20T18:26:59.887Z,61.12
2022-12-20T18:29:27.326Z,60.71
2022-12-20T18:31:54.960Z,59.92
2022-12-20T18:34:22.592Z,59.69
2022-12-20T18:36:50.029Z,59.04
2022-12-20T18:39:17.365Z,58.79
2022-12-20T18:41:44.838Z,59.30
2022-12-20T18:44:12.304Z,58.85
2022-12-20T18:46:40.963Z,58.36
2022-12-20T18:49:08.967Z,58.64
2022-12-20T18:51:39.366Z,58.00
2022-12-20T18:54:10.318Z,57.90
2022-12-20T18:56:37.932Z,58.03
2022-12-20T18:59:11.496Z,57.56
2022-12-20T19:01:40.605Z,58.15
2022-12-20T19:04:08.630Z,58.65
2022-12-20T19:06:36.380Z,58.67
2022-12-20T19:09:05.240Z,59.18
2022-12-20T19:11:32.770Z,60.03
2022-12-20T23:35:58.181Z,100.00
2022-12-20T23:38:25.504Z,100.00
2022-12-20T23:40:53.017Z,100.00
2022-12-20T23:43:20.354Z,100.00
2022-12-20T23:45:47.715Z,100.00
2022-12-20T23:48:15.189Z,100.00
2022-12-20T23:50:42.478Z,100.00
2022-12-20T23:53:10.096Z,100.00
2022-12-20T23:55:37.428Z,100.00
2022-12-20T23:58:04.813Z,100.00
